sensor_id;sensor_type;location;lat;lon;timestamp;pressure;altitude;pressure_sealevel;temperature;humidity
42601;BME280;28229;48.856;9.088;2023-04-10T00:00:30;98552.25;;;6.24;64.95
42601;BME280;28229;48.856;9.088;2023-04-10T00:02:58;98551.78;;;6.21;64.76
42601;BME280;28229;48.856;9.088;2023-04-10T00:05:24;98551.50;;;6.16;65.00
42601;BME280;28229;48.856;9.088;2023-04-10T00:07:50;98552.13;;;6.18;65.89
42601;BME280;28229;48.856;9.088;2023-04-10T00:10:17;98545.22;;;6.02;66.30
42601;BME280;28229;48.856;9.088;2023-04-10T00:12:43;98544.56;;;6.00;66.53
42601;BME280;28229;48.856;9.088;2023-04-10T00:15:09;98544.56;;;5.91;67.24
42601;BME280;28229;48.856;9.088;2023-04-10T00:17:36;98549.41;;;5.80;67.65
42601;BME280;28229;48.856;9.088;2023-04-10T00:20:02;98544.66;;;5.75;67.73
42601;BME280;28229;48.856;9.088;2023-04-10T00:22:30;98546.50;;;5.66;68.63
42601;BME280;28229;48.856;9.088;2023-04-10T00:24:56;98538.06;;;5.56;69.21
42601;BME280;28229;48.856;9.088;2023-04-10T00:27:22;98536.78;;;5.52;68.88
42601;BME280;28229;48.856;9.088;2023-04-10T00:29:48;98540.09;;;5.46;68.92
42601;BME280;28229;48.856;9.088;2023-04-10T00:32:14;98539.44;;;5.44;69.00
42601;BME280;28229;48.856;9.088;2023-04-10T00:34:40;98535.84;;;5.45;69.14
42601;BME280;28229;48.856;9.088;2023-04-10T00:37:06;98536.53;;;5.39;69.77
42601;BME280;28229;48.856;9.088;2023-04-10T00:39:33;98533.28;;;5.28;69.91
42601;BME280;28229;48.856;9.088;2023-04-10T00:41:59;98528.91;;;5.21;70.04
42601;BME280;28229;48.856;9.088;2023-04-10T00:44:27;98529.44;;;5.08;70.71
42601;BME280;28229;48.856;9.088;2023-04-10T00:46:53;98527.50;;;5.10;70.54
42601;BME280;28229;48.856;9.088;2023-04-10T00:49:20;98526.19;;;5.06;70.84
42601;BME280;28229;48.856;9.088;2023-04-10T00:51:47;98528.34;;;4.94;71.08
42601;BME280;28229;48.856;9.088;2023-04-10T00:54:13;98527.50;;;4.93;71.69
42601;BME280;28229;48.856;9.088;2023-04-10T00:56:40;98522.16;;;4.87;71.82
42601;BME280;28229;48.856;9.088;2023-04-10T00:59:06;98521.00;;;4.89;71.69
42601;BME280;28229;48.856;9.088;2023-04-10T01:01:32;98519.72;;;4.85;71.97
42601;BME280;28229;48.856;9.088;2023-04-10T01:03:58;98522.97;;;4.79;72.11
42601;BME280;28229;48.856;9.088;2023-04-10T01:09:20;98522.66;;;4.74;72.62
42601;BME280;28229;48.856;9.088;2023-04-10T01:11:53;98529.03;;;4.71;72.41
42601;BME280;28229;48.856;9.088;2023-04-10T01:14:41;98527.88;;;4.66;72.54
42601;BME280;28229;48.856;9.088;2023-04-10T01:17:34;98528.03;;;4.64;72.64
42601;BME280;28229;48.856;9.088;2023-04-10T01:20:11;98536.84;;;4.63;73.28
42601;BME280;28229;48.856;9.088;2023-04-10T01:25:37;98531.81;;;4.53;74.59
42601;BME280;28229;48.856;9.088;2023-04-10T01:28:15;98540.91;;;4.41;74.67
42601;BME280;28229;48.856;9.088;2023-04-10T01:30:56;98528.38;;;4.36;74.41
42601;BME280;28229;48.856;9.088;2023-04-10T01:33:35;98531.16;;;4.27;74.99
42601;BME280;28229;48.856;9.088;2023-04-10T01:36:04;98528.88;;;4.32;74.75
42601;BME280;28229;48.856;9.088;2023-04-10T01:38:32;98525.63;;;4.30;75.08
42601;BME280;28229;48.856;9.088;2023-04-10T01:41:01;98523.00;;;4.22;75.23
42601;BME280;28229;48.856;9.088;2023-04-10T01:43:30;98524.97;;;4.19;75.05
42601;BME280;28229;48.856;9.088;2023-04-10T01:45:58;98518.91;;;4.03;76.27
42601;BME280;28229;48.856;9.088;2023-04-10T01:48:26;98519.41;;;3.98;76.72
42601;BME280;28229;48.856;9.088;2023-04-10T01:50:54;98517.63;;;4.07;76.66
42601;BME280;28229;48.856;9.088;2023-04-10T01:53:22;98519.25;;;3.99;76.98
42601;BME280;28229;48.856;9.088;2023-04-10T01:55:49;98525.56;;;3.97;77.50
42601;BME280;28229;48.856;9.088;2023-04-10T01:58:16;98508.00;;;3.99;76.94
42601;BME280;28229;48.856;9.088;2023-04-10T02:00:43;98516.78;;;3.98;76.81
42601;BME280;28229;48.856;9.088;2023-04-10T02:03:11;98515.81;;;3.99;76.52
42601;BME280;28229;48.856;9.088;2023-04-10T02:08:30;98508.00;;;3.99;76.67
42601;BME280;28229;48.856;9.088;2023-04-10T02:11:09;98508.81;;;3.91;77.43
42601;BME280;28229;48.856;9.088;2023-04-10T02:13:39;98506.66;;;3.87;77.75
42601;BME280;28229;48.856;9.088;2023-04-10T02:16:07;98513.19;;;3.83;77.65
42601;BME280;28229;48.856;9.088;2023-04-10T02:18:35;98516.78;;;3.81;78.00
42601;BME280;28229;48.856;9.088;2023-04-10T02:21:02;98512.19;;;3.75;78.22
42601;BME280;28229;48.856;9.088;2023-04-10T02:23:28;98512.19;;;3.75;78.43
42601;BME280;28229;48.856;9.088;2023-04-10T02:25:55;98511.53;;;3.73;77.86
42601;BME280;28229;48.856;9.088;2023-04-10T02:28:24;98518.84;;;3.70;77.17
42601;BME280;28229;48.856;9.088;2023-04-10T02:30:51;98508.91;;;3.65;77.42
42601;BME280;28229;48.856;9.088;2023-04-10T02:33:17;98514.41;;;3.54;77.91
42601;BME280;28229;48.856;9.088;2023-04-10T02:35:43;98512.13;;;3.51;78.22
42601;BME280;28229;48.856;9.088;2023-04-10T02:38:09;98518.97;;;3.52;78.64
42601;BME280;28229;48.856;9.088;2023-04-10T02:40:37;98520.06;;;3.49;78.40
42601;BME280;28229;48.856;9.088;2023-04-10T02:43:12;98525.75;;;3.45;78.47
42601;BME280;28229;48.856;9.088;2023-04-10T02:45:39;98522.97;;;3.38;78.28
42601;BME280;28229;48.856;9.088;2023-04-10T02:48:08;98519.81;;;3.26;78.60
42601;BME280;28229;48.856;9.088;2023-04-10T02:50:36;98529.91;;;3.21;79.07
42601;BME280;28229;48.856;9.088;2023-04-10T02:53:02;98534.38;;;3.11;79.74
42601;BME280;28229;48.856;9.088;2023-04-10T02:55:28;98534.53;;;3.09;79.96
42601;BME280;28229;48.856;9.088;2023-04-10T02:57:54;98533.38;;;3.03;80.32
42601;BME280;28229;48.856;9.088;2023-04-10T03:00:21;98535.31;;;3.01;80.91
42601;BME280;28229;48.856;9.088;2023-04-10T03:03:06;98528.19;;;3.03;81.27
42601;BME280;28229;48.856;9.088;2023-04-10T03:05:41;98529.03;;;3.12;80.57
42601;BME280;28229;48.856;9.088;2023-04-10T03:08:07;98519.38;;;3.04;80.73
42601;BME280;28229;48.856;9.088;2023-04-10T03:10:33;98515.19;;;3.03;80.31
42601;BME280;28229;48.856;9.088;2023-04-10T03:13:00;98520.69;;;3.00;80.38
42601;BME280;28229;48.856;9.088;2023-04-10T03:15:30;98511.22;;;2.99;80.72
42601;BME280;28229;48.856;9.088;2023-04-10T03:17:58;98509.63;;;2.98;80.54
42601;BME280;28229;48.856;9.088;2023-04-10T03:20:24;98513.31;;;2.96;80.89
42601;BME280;28229;48.856;9.088;2023-04-10T03:22:50;98507.47;;;2.94;81.05
42601;BME280;28229;48.856;9.088;2023-04-10T03:25:16;98514.41;;;2.85;81.53
42601;BME280;28229;48.856;9.088;2023-04-10T03:27:42;98500.44;;;2.86;81.60
42601;BME280;28229;48.856;9.088;2023-04-10T03:30:09;98505.28;;;2.81;81.78
42601;BME280;28229;48.856;9.088;2023-04-10T03:32:40;98503.47;;;2.73;82.06
42601;BME280;28229;48.856;9.088;2023-04-10T03:35:08;98500.38;;;2.70;82.78
42601;BME280;28229;48.856;9.088;2023-04-10T03:37:35;98491.59;;;2.71;83.15
42601;BME280;28229;48.856;9.088;2023-04-10T03:40:06;98495.97;;;2.70;83.29
42601;BME280;28229;48.856;9.088;2023-04-10T03:42:33;98492.25;;;2.73;83.06
42601;BME280;28229;48.856;9.088;2023-04-10T03:44:59;98491.91;;;2.67;83.18
42601;BME280;28229;48.856;9.088;2023-04-10T03:47:27;98491.41;;;2.64;83.88
42601;BME280;28229;48.856;9.088;2023-04-10T03:49:53;98491.06;;;2.67;83.99
42601;BME280;28229;48.856;9.088;2023-04-10T03:52:20;98484.84;;;2.60;83.98
42601;BME280;28229;48.856;9.088;2023-04-10T03:54:46;98490.88;;;2.60;83.70
42601;BME280;28229;48.856;9.088;2023-04-10T03:57:22;98476.25;;;2.59;83.92
42601;BME280;28229;48.856;9.088;2023-04-10T03:59:50;98483.53;;;2.56;84.11
42601;BME280;28229;48.856;9.088;2023-04-10T04:02:17;98478.78;;;2.51;84.22
42601;BME280;28229;48.856;9.088;2023-04-10T04:04:44;98480.44;;;2.52;83.84
42601;BME280;28229;48.856;9.088;2023-04-10T04:07:20;98481.72;;;2.48;83.82
42601;BME280;28229;48.856;9.088;2023-04-10T04:10:09;98474.16;;;2.37;84.50
42601;BME280;28229;48.856;9.088;2023-04-10T04:12:47;98473.13;;;2.29;85.15
42601;BME280;28229;48.856;9.088;2023-04-10T04:15:36;98466.22;;;2.38;84.72
42601;BME280;28229;48.856;9.088;2023-04-10T04:18:17;98458.06;;;2.33;84.88
42601;BME280;28229;48.856;9.088;2023-04-10T04:20:51;98461.78;;;2.31;85.40
42601;BME280;28229;48.856;9.088;2023-04-10T04:23:34;98471.69;;;2.35;85.29
42601;BME280;28229;48.856;9.088;2023-04-10T04:26:05;98465.41;;;2.38;85.20
42601;BME280;28229;48.856;9.088;2023-04-10T04:29:00;98466.06;;;2.40;85.02
42601;BME280;28229;48.856;9.088;2023-04-10T04:31:47;98467.03;;;2.39;85.03
42601;BME280;28229;48.856;9.088;2023-04-10T04:34:46;98472.72;;;2.42;84.93
42601;BME280;28229;48.856;9.088;2023-04-10T04:37:51;98473.06;;;2.39;85.51
42601;BME280;28229;48.856;9.088;2023-04-10T04:40:41;98466.34;;;2.37;85.51
42601;BME280;28229;48.856;9.088;2023-04-10T04:43:16;98464.28;;;2.40;85.66
42601;BME280;28229;48.856;9.088;2023-04-10T04:46:12;98465.44;;;2.46;85.65
42601;BME280;28229;48.856;9.088;2023-04-10T04:48:52;98458.28;;;2.40;86.10
42601;BME280;28229;48.856;9.088;2023-04-10T04:51:29;98462.16;;;2.36;86.97
42601;BME280;28229;48.856;9.088;2023-04-10T04:54:03;98468.38;;;2.43;87.16
42601;BME280;28229;48.856;9.088;2023-04-10T04:56:39;98475.69;;;2.47;87.42
42601;BME280;28229;48.856;9.088;2023-04-10T04:59:21;98475.69;;;2.47;87.47
42601;BME280;28229;48.856;9.088;2023-04-10T05:01:59;98477.84;;;2.52;87.22
42601;BME280;28229;48.856;9.088;2023-04-10T05:04:44;98478.13;;;2.49;87.50
42601;BME280;28229;48.856;9.088;2023-04-10T05:07:43;98480.50;;;2.60;87.35
42601;BME280;28229;48.856;9.088;2023-04-10T05:10:28;98483.09;;;2.60;87.36
42601;BME280;28229;48.856;9.088;2023-04-10T05:13:14;98481.81;;;2.64;86.97
42601;BME280;28229;48.856;9.088;2023-04-10T05:16:17;98473.75;;;2.76;86.63
42601;BME280;28229;48.856;9.088;2023-04-10T05:19:02;98482.91;;;2.80;86.41
42601;BME280;28229;48.856;9.088;2023-04-10T05:21:53;98477.50;;;2.81;86.33
42601;BME280;28229;48.856;9.088;2023-04-10T05:24:30;98488.75;;;2.82;86.18
42601;BME280;28229;48.856;9.088;2023-04-10T05:27:16;98488.25;;;2.86;86.00
42601;BME280;28229;48.856;9.088;2023-04-10T05:30:05;98485.66;;;2.86;85.88
42601;BME280;28229;48.856;9.088;2023-04-10T05:32:57;98482.81;;;2.98;85.96
42601;BME280;28229;48.856;9.088;2023-04-10T05:35:59;98477.16;;;3.02;85.57
42601;BME280;28229;48.856;9.088;2023-04-10T05:38:51;98481.41;;;3.12;85.07
42601;BME280;28229;48.856;9.088;2023-04-10T05:41:36;98480.28;;;3.14;84.90
42601;BME280;28229;48.856;9.088;2023-04-10T05:44:21;98475.75;;;3.16;85.17
42601;BME280;28229;48.856;9.088;2023-04-10T05:47:01;98481.44;;;3.20;85.34
42601;BME280;28229;48.856;9.088;2023-04-10T05:49:54;98483.41;;;3.26;85.32
42601;BME280;28229;48.856;9.088;2023-04-10T05:52:30;98479.56;;;3.38;85.22
42601;BME280;28229;48.856;9.088;2023-04-10T05:55:24;98489.53;;;3.51;85.55
42601;BME280;28229;48.856;9.088;2023-04-10T05:58:26;98492.78;;;3.53;85.92
42601;BME280;28229;48.856;9.088;2023-04-10T06:01:11;98490.34;;;3.52;86.22
42601;BME280;28229;48.856;9.088;2023-04-10T06:03:45;98493.13;;;3.58;86.11
42601;BME280;28229;48.856;9.088;2023-04-10T06:06:12;98496.09;;;3.72;86.00
42601;BME280;28229;48.856;9.088;2023-04-10T06:08:40;98498.88;;;3.78;85.79
42601;BME280;28229;48.856;9.088;2023-04-10T06:11:06;98492.66;;;3.79;85.69
42601;BME280;28229;48.856;9.088;2023-04-10T06:13:32;98486.53;;;3.89;85.13
42601;BME280;28229;48.856;9.088;2023-04-10T06:16:00;98491.72;;;3.97;85.29
42601;BME280;28229;48.856;9.088;2023-04-10T06:18:28;98486.84;;;4.02;85.28
42601;BME280;28229;48.856;9.088;2023-04-10T06:20:54;98482.13;;;4.06;85.16
42601;BME280;28229;48.856;9.088;2023-04-10T06:23:22;98484.59;;;4.15;84.89
42601;BME280;28229;48.856;9.088;2023-04-10T06:25:49;98490.47;;;4.17;84.62
42601;BME280;28229;48.856;9.088;2023-04-10T06:28:15;98483.78;;;4.23;84.32
42601;BME280;28229;48.856;9.088;2023-04-10T06:30:44;98490.44;;;4.34;84.03
42601;BME280;28229;48.856;9.088;2023-04-10T06:33:11;98485.25;;;4.42;84.10
42601;BME280;28229;48.856;9.088;2023-04-10T06:35:41;98479.63;;;4.86;91.90
42601;BME280;28229;48.856;9.088;2023-04-10T06:38:07;98488.66;;;5.15;93.53
42601;BME280;28229;48.856;9.088;2023-04-10T06:40:35;98481.09;;;5.37;90.33
42601;BME280;28229;48.856;9.088;2023-04-10T06:43:01;98482.03;;;5.44;86.75
42601;BME280;28229;48.856;9.088;2023-04-10T06:45:38;98484.72;;;5.59;85.55
42601;BME280;28229;48.856;9.088;2023-04-10T06:48:05;98483.22;;;5.64;82.29
42601;BME280;28229;48.856;9.088;2023-04-10T06:50:33;98488.69;;;5.78;81.36
42601;BME280;28229;48.856;9.088;2023-04-10T06:52:59;98485.06;;;5.87;79.90
42601;BME280;28229;48.856;9.088;2023-04-10T06:55:26;98479.56;;;6.05;79.14
42601;BME280;28229;48.856;9.088;2023-04-10T06:57:52;98478.81;;;6.19;77.46
42601;BME280;28229;48.856;9.088;2023-04-10T07:00:18;98473.63;;;6.34;76.63
42601;BME280;28229;48.856;9.088;2023-04-10T07:02:44;98472.75;;;6.57;76.66
42601;BME280;28229;48.856;9.088;2023-04-10T07:05:11;98469.44;;;6.63;73.82
42601;BME280;28229;48.856;9.088;2023-04-10T07:07:37;98472.69;;;6.80;73.09
42601;BME280;28229;48.856;9.088;2023-04-10T07:10:03;98457.19;;;6.93;71.18
42601;BME280;28229;48.856;9.088;2023-04-10T07:12:30;98459.06;;;7.14;70.12
42601;BME280;28229;48.856;9.088;2023-04-10T07:14:56;98452.81;;;7.30;69.15
42601;BME280;28229;48.856;9.088;2023-04-10T07:17:23;98452.72;;;7.38;66.76
42601;BME280;28229;48.856;9.088;2023-04-10T07:19:49;98457.56;;;7.56;65.65
42601;BME280;28229;48.856;9.088;2023-04-10T07:22:15;98459.31;;;7.71;65.56
42601;BME280;28229;48.856;9.088;2023-04-10T07:24:41;98461.34;;;7.90;66.13
42601;BME280;28229;48.856;9.088;2023-04-10T07:27:08;98462.53;;;8.09;65.19
42601;BME280;28229;48.856;9.088;2023-04-10T07:29:34;98461.69;;;8.30;63.87
42601;BME280;28229;48.856;9.088;2023-04-10T07:32:00;98459.44;;;8.49;60.11
42601;BME280;28229;48.856;9.088;2023-04-10T07:34:26;98458.13;;;8.60;58.01
42601;BME280;28229;48.856;9.088;2023-04-10T07:36:52;98455.75;;;8.71;55.36
42601;BME280;28229;48.856;9.088;2023-04-10T07:39:18;98459.09;;;8.87;55.26
42601;BME280;28229;48.856;9.088;2023-04-10T07:41:45;98453.94;;;9.07;55.60
42601;BME280;28229;48.856;9.088;2023-04-10T07:44:11;98448.78;;;9.27;53.85
42601;BME280;28229;48.856;9.088;2023-04-10T07:46:38;98451.25;;;9.35;52.25
42601;BME280;28229;48.856;9.088;2023-04-10T07:49:04;98460.19;;;9.54;52.75
42601;BME280;28229;48.856;9.088;2023-04-10T07:51:30;98456.00;;;9.66;51.72
42601;BME280;28229;48.856;9.088;2023-04-10T07:53:56;98459.84;;;9.70;50.33
42601;BME280;28229;48.856;9.088;2023-04-10T07:56:22;98461.06;;;9.81;50.38
42601;BME280;28229;48.856;9.088;2023-04-10T07:58:50;98461.53;;;9.98;48.70
42601;BME280;28229;48.856;9.088;2023-04-10T08:01:16;98455.47;;;10.11;48.82
42601;BME280;28229;48.856;9.088;2023-04-10T08:03:43;98457.09;;;10.39;48.03
42601;BME280;28229;48.856;9.088;2023-04-10T08:06:11;98452.25;;;10.49;47.65
42601;BME280;28229;48.856;9.088;2023-04-10T08:08:39;98454.03;;;10.75;47.40
42601;BME280;28229;48.856;9.088;2023-04-10T08:11:22;98454.44;;;10.79;46.80
42601;BME280;28229;48.856;9.088;2023-04-10T08:13:51;98450.75;;;10.93;45.71
42601;BME280;28229;48.856;9.088;2023-04-10T08:16:21;98444.44;;;11.08;46.64
42601;BME280;28229;48.856;9.088;2023-04-10T08:18:47;98443.97;;;11.24;45.19
42601;BME280;28229;48.856;9.088;2023-04-10T08:21:13;98440.25;;;11.38;44.67
42601;BME280;28229;48.856;9.088;2023-04-10T08:23:39;98446.09;;;11.54;44.40
42601;BME280;28229;48.856;9.088;2023-04-10T08:26:06;98446.59;;;11.69;44.18
42601;BME280;28229;48.856;9.088;2023-04-10T08:28:32;98444.06;;;11.88;44.08
42601;BME280;28229;48.856;9.088;2023-04-10T08:31:01;98433.13;;;11.91;43.15
42601;BME280;28229;48.856;9.088;2023-04-10T08:33:27;98441.53;;;12.06;43.55
42601;BME280;28229;48.856;9.088;2023-04-10T08:35:53;98438.34;;;12.23;42.59
42601;BME280;28229;48.856;9.088;2023-04-10T08:38:19;98433.22;;;12.28;41.93
42601;BME280;28229;48.856;9.088;2023-04-10T08:40:48;98424.03;;;12.12;42.40
42601;BME280;28229;48.856;9.088;2023-04-10T08:43:14;98429.75;;;12.34;42.34
42601;BME280;28229;48.856;9.088;2023-04-10T08:45:41;98432.63;;;12.51;42.09
42601;BME280;28229;48.856;9.088;2023-04-10T08:48:07;98425.41;;;12.65;41.67
42601;BME280;28229;48.856;9.088;2023-04-10T08:50:40;98424.03;;;12.81;41.15
42601;BME280;28229;48.856;9.088;2023-04-10T08:53:11;98418.22;;;13.09;40.83
42601;BME280;28229;48.856;9.088;2023-04-10T08:55:39;98424.81;;;13.37;40.38
42601;BME280;28229;48.856;9.088;2023-04-10T08:58:06;98425.16;;;13.59;40.37
42601;BME280;28229;48.856;9.088;2023-04-10T09:00:34;98425.44;;;13.69;38.96
42601;BME280;28229;48.856;9.088;2023-04-10T09:03:05;98425.00;;;13.84;40.14
42601;BME280;28229;48.856;9.088;2023-04-10T09:05:34;98423.28;;;13.89;38.61
42601;BME280;28229;48.856;9.088;2023-04-10T09:08:00;98432.28;;;14.00;38.07
42601;BME280;28229;48.856;9.088;2023-04-10T09:10:26;98435.50;;;14.02;38.21
42601;BME280;28229;48.856;9.088;2023-04-10T09:12:53;98431.72;;;14.22;38.14
42601;BME280;28229;48.856;9.088;2023-04-10T09:15:19;98433.69;;;14.38;37.67
42601;BME280;28229;48.856;9.088;2023-04-10T09:18:00;98429.94;;;14.58;37.68
42601;BME280;28229;48.856;9.088;2023-04-10T09:20:29;98426.50;;;14.69;37.13
42601;BME280;28229;48.856;9.088;2023-04-10T09:22:56;98415.66;;;14.82;37.05
42601;BME280;28229;48.856;9.088;2023-04-10T09:27:59;98410.34;;;14.82;36.08
42601;BME280;28229;48.856;9.088;2023-04-10T09:30:37;98406.22;;;14.87;35.21
42601;BME280;28229;48.856;9.088;2023-04-10T09:35:46;98392.88;;;14.81;34.61
42601;BME280;28229;48.856;9.088;2023-04-10T09:38:16;98391.69;;;14.77;34.30
42601;BME280;28229;48.856;9.088;2023-04-10T09:40:43;98373.13;;;15.01;34.24
42601;BME280;28229;48.856;9.088;2023-04-10T09:43:17;98376.91;;;15.05;33.17
42601;BME280;28229;48.856;9.088;2023-04-10T09:46:02;98368.50;;;15.08;34.99
42601;BME280;28229;48.856;9.088;2023-04-10T09:48:28;98370.06;;;14.80;34.06
42601;BME280;28229;48.856;9.088;2023-04-10T09:50:55;98370.50;;;14.77;34.24
42601;BME280;28229;48.856;9.088;2023-04-10T09:53:21;98355.75;;;15.22;35.50
42601;BME280;28229;48.856;9.088;2023-04-10T09:55:49;98359.00;;;15.41;34.29
42601;BME280;28229;48.856;9.088;2023-04-10T09:58:15;98355.19;;;15.66;33.48
42601;BME280;28229;48.856;9.088;2023-04-10T10:00:44;98352.34;;;15.84;32.87
42601;BME280;28229;48.856;9.088;2023-04-10T10:03:12;98349.13;;;16.16;32.46
42601;BME280;28229;48.856;9.088;2023-04-10T10:05:44;98343.34;;;16.19;32.76
42601;BME280;28229;48.856;9.088;2023-04-10T10:08:12;98342.53;;;16.18;30.94
42601;BME280;28229;48.856;9.088;2023-04-10T10:10:46;98340.75;;;16.24;31.73
42601;BME280;28229;48.856;9.088;2023-04-10T10:13:15;98327.03;;;16.49;31.05
42601;BME280;28229;48.856;9.088;2023-04-10T10:15:59;98324.16;;;16.34;30.95
42601;BME280;28229;48.856;9.088;2023-04-10T10:18:45;98323.13;;;16.57;31.80
42601;BME280;28229;48.856;9.088;2023-04-10T10:21:12;98321.31;;;16.63;29.79
42601;BME280;28229;48.856;9.088;2023-04-10T10:23:41;98319.00;;;16.27;30.14
42601;BME280;28229;48.856;9.088;2023-04-10T10:26:09;98315.47;;;16.83;31.68
42601;BME280;28229;48.856;9.088;2023-04-10T10:28:36;98306.78;;;17.15;30.98
42601;BME280;28229;48.856;9.088;2023-04-10T10:31:03;98298.63;;;17.54;30.23
42601;BME280;28229;48.856;9.088;2023-04-10T10:33:29;98297.34;;;17.56;29.64
42601;BME280;28229;48.856;9.088;2023-04-10T10:36:00;98294.78;;;17.72;29.23
42601;BME280;28229;48.856;9.088;2023-04-10T10:38:26;98284.41;;;18.02;29.03
42601;BME280;28229;48.856;9.088;2023-04-10T10:41:09;98286.25;;;17.97;28.79
42601;BME280;28229;48.856;9.088;2023-04-10T10:43:49;98281.38;;;17.88;28.95
42601;BME280;28229;48.856;9.088;2023-04-10T10:48:58;98270.16;;;17.22;29.19
42601;BME280;28229;48.856;9.088;2023-04-10T10:51:47;98271.50;;;17.19;28.59
42601;BME280;28229;48.856;9.088;2023-04-10T10:54:33;98266.53;;;16.79;28.82
42601;BME280;28229;48.856;9.088;2023-04-10T10:57:01;98265.69;;;16.51;28.03
42601;BME280;28229;48.856;9.088;2023-04-10T11:02:13;98266.59;;;17.06;29.06
42601;BME280;28229;48.856;9.088;2023-04-10T11:04:44;98256.03;;;17.43;29.23
42601;BME280;28229;48.856;9.088;2023-04-10T11:07:11;98254.25;;;17.59;27.74
42601;BME280;28229;48.856;9.088;2023-04-10T11:12:11;98259.00;;;17.52;26.46
42601;BME280;28229;48.856;9.088;2023-04-10T11:14:39;98249.09;;;17.42;25.53
42601;BME280;28229;48.856;9.088;2023-04-10T11:17:06;98246.25;;;17.54;25.48
42601;BME280;28229;48.856;9.088;2023-04-10T11:20:00;98256.25;;;17.74;25.26
42601;BME280;28229;48.856;9.088;2023-04-10T11:22:27;98238.91;;;18.09;25.60
42601;BME280;28229;48.856;9.088;2023-04-10T11:24:58;98234.78;;;18.39;24.93
42601;BME280;28229;48.856;9.088;2023-04-10T11:27:42;98238.88;;;18.72;24.98
42601;BME280;28229;48.856;9.088;2023-04-10T11:30:42;98240.19;;;18.59;23.34
42601;BME280;28229;48.856;9.088;2023-04-10T11:33:16;98237.53;;;18.70;22.47
42601;BME280;28229;48.856;9.088;2023-04-10T11:35:44;98230.19;;;19.02;22.22
42601;BME280;28229;48.856;9.088;2023-04-10T11:38:12;98230.69;;;18.99;21.66
42601;BME280;28229;48.856;9.088;2023-04-10T11:40:56;98234.81;;;18.49;21.57
42601;BME280;28229;48.856;9.088;2023-04-10T11:43:22;98231.66;;;18.52;22.94
42601;BME280;28229;48.856;9.088;2023-04-10T11:45:58;98229.09;;;18.93;22.04
42601;BME280;28229;48.856;9.088;2023-04-10T11:48:26;98223.50;;;19.41;21.16
42601;BME280;28229;48.856;9.088;2023-04-10T11:50:52;98212.56;;;19.63;21.41
42601;BME280;28229;48.856;9.088;2023-04-10T11:53:19;98217.91;;;19.48;22.08
42601;BME280;28229;48.856;9.088;2023-04-10T11:55:46;98205.09;;;19.50;21.41
42601;BME280;28229;48.856;9.088;2023-04-10T11:58:26;98203.22;;;19.76;22.12
42601;BME280;28229;48.856;9.088;2023-04-10T12:00:59;98193.38;;;19.35;21.29
42601;BME280;28229;48.856;9.088;2023-04-10T12:03:39;98175.22;;;19.73;21.41
42601;BME280;28229;48.856;9.088;2023-04-10T12:06:08;98174.09;;;19.95;22.11
42601;BME280;28229;48.856;9.088;2023-04-10T12:08:37;98170.91;;;19.83;21.42
42601;BME280;28229;48.856;9.088;2023-04-10T12:11:04;98168.38;;;20.22;22.08
42601;BME280;28229;48.856;9.088;2023-04-10T12:13:31;98171.13;;;20.62;21.67
42601;BME280;28229;48.856;9.088;2023-04-10T12:15:59;98173.22;;;20.70;21.10
42601;BME280;28229;48.856;9.088;2023-04-10T12:18:27;98168.56;;;20.36;21.32
42601;BME280;28229;48.856;9.088;2023-04-10T12:20:55;98164.06;;;20.26;20.65
42601;BME280;28229;48.856;9.088;2023-04-10T12:23:22;98161.13;;;20.28;21.08
42601;BME280;28229;48.856;9.088;2023-04-10T12:25:49;98155.16;;;20.46;21.09
42601;BME280;28229;48.856;9.088;2023-04-10T12:28:20;98152.13;;;20.08;20.58
42601;BME280;28229;48.856;9.088;2023-04-10T12:30:52;98154.03;;;20.03;21.83
42601;BME280;28229;48.856;9.088;2023-04-10T12:33:22;98157.97;;;20.15;21.80
42601;BME280;28229;48.856;9.088;2023-04-10T12:35:49;98143.22;;;20.28;20.68
42601;BME280;28229;48.856;9.088;2023-04-10T12:38:39;98149.41;;;20.24;20.65
42601;BME280;28229;48.856;9.088;2023-04-10T12:41:07;98142.41;;;20.28;21.13
42601;BME280;28229;48.856;9.088;2023-04-10T12:43:39;98133.19;;;20.54;20.85
42601;BME280;28229;48.856;9.088;2023-04-10T12:46:07;98129.09;;;20.17;20.46
42601;BME280;28229;48.856;9.088;2023-04-10T12:48:34;98124.63;;;20.08;20.77
42601;BME280;28229;48.856;9.088;2023-04-10T12:51:00;98120.09;;;20.08;20.31
42601;BME280;28229;48.856;9.088;2023-04-10T12:53:27;98115.75;;;20.17;19.65
42601;BME280;28229;48.856;9.088;2023-04-10T12:55:57;98116.63;;;20.03;19.29
42601;BME280;28229;48.856;9.088;2023-04-10T12:58:24;98118.91;;;20.30;19.70
42601;BME280;28229;48.856;9.088;2023-04-10T13:00:54;98118.00;;;20.50;19.64
42601;BME280;28229;48.856;9.088;2023-04-10T13:03:21;98112.28;;;20.67;19.50
42601;BME280;28229;48.856;9.088;2023-04-10T13:05:47;98106.06;;;20.77;19.72
42601;BME280;28229;48.856;9.088;2023-04-10T13:08:14;98106.16;;;20.96;19.19
42601;BME280;28229;48.856;9.088;2023-04-10T13:10:40;98108.53;;;21.02;18.59
42601;BME280;28229;48.856;9.088;2023-04-10T13:13:08;98101.91;;;20.95;18.56
42601;BME280;28229;48.856;9.088;2023-04-10T13:15:38;98093.81;;;21.00;18.89
42601;BME280;28229;48.856;9.088;2023-04-10T13:18:08;98087.38;;;20.77;18.59
42601;BME280;28229;48.856;9.088;2023-04-10T13:20:36;98083.78;;;20.07;18.38
42601;BME280;28229;48.856;9.088;2023-04-10T13:23:03;98089.84;;;19.53;19.13
42601;BME280;28229;48.856;9.088;2023-04-10T13:25:31;98087.72;;;19.45;19.78
42601;BME280;28229;48.856;9.088;2023-04-10T13:27:59;98087.13;;;19.63;19.82
42601;BME280;28229;48.856;9.088;2023-04-10T13:30:27;98086.50;;;19.92;19.98
42601;BME280;28229;48.856;9.088;2023-04-10T13:32:53;98087.50;;;20.11;19.45
42601;BME280;28229;48.856;9.088;2023-04-10T13:35:20;98075.88;;;20.31;19.53
42601;BME280;28229;48.856;9.088;2023-04-10T13:37:47;98095.78;;;20.10;19.85
42601;BME280;28229;48.856;9.088;2023-04-10T13:40:13;98068.41;;;19.78;20.14
42601;BME280;28229;48.856;9.088;2023-04-10T13:42:39;98070.19;;;20.04;19.84
42601;BME280;28229;48.856;9.088;2023-04-10T13:45:05;98069.38;;;20.03;19.71
42601;BME280;28229;48.856;9.088;2023-04-10T13:47:31;98065.69;;;19.89;19.80
42601;BME280;28229;48.856;9.088;2023-04-10T13:49:58;98067.94;;;19.61;20.05